Time;durP1;ratioP1;P1;durP2;ratioP2;P2;SDS_P1;SDS_P2;PMS_P1;PMS_P2;Temp;Humidity;BMP_temperature;BMP_pressure;BME280_temperature;BME280_humidity;BME280_pressure;Samples;Min_cycle;Max_cycle;Signal;HPM_P1;HPM_P2
2022/07/16 00:02:05;;;;;;;6.18;4.50;;;;;;;21.39;75.12;96493.59;5039013;28;20294;-82
2022/07/16 00:04:32;;;;;;;6.55;4.70;;;;;;;21.33;74.85;96487.38;5041280;28;20213;-81
2022/07/16 00:07:01;;;;;;;5.20;4.47;;;;;;;21.38;73.22;96494.72;5044560;28;20202;-82
2022/07/16 00:09:28;;;;;;;4.68;4.28;;;;;;;21.42;72.75;96499.34;5031250;28;20195;-81
2022/07/16 00:11:55;;;;;;;5.32;4.53;;;;;;;21.44;73.45;96488.84;5046988;28;20252;-82
2022/07/16 00:14:22;;;;;;;4.57;4.18;;;;;;;21.31;73.66;96488.78;5039380;28;20205;-82
2022/07/16 00:16:49;;;;;;;8.38;4.68;;;;;;;21.25;73.85;96490.78;5034045;28;20230;-82
2022/07/16 00:19:23;;;;;;;6.05;4.60;;;;;;;21.23;73.72;96497.66;5043629;28;20206;-82
2022/07/16 00:21:54;;;;;;;5.18;4.68;;;;;;;21.26;74.60;96491.59;5042398;28;20212;-82
2022/07/16 00:24:23;;;;;;;5.72;4.63;;;;;;;21.18;75.15;96501.28;5077055;28;20213;-82
2022/07/16 00:26:50;;;;;;;7.22;4.50;;;;;;;21.12;75.71;96496.94;5048921;28;20198;-82
2022/07/16 00:29:19;;;;;;;6.82;4.70;;;;;;;21.06;76.05;96504.44;5045396;28;20238;-82
2022/07/16 00:31:47;;;;;;;5.80;4.50;;;;;;;20.97;76.84;96503.44;5026740;28;20228;-82
2022/07/16 00:34:15;;;;;;;5.72;4.57;;;;;;;20.99;76.68;96498.50;5041157;28;20269;-82
2022/07/16 00:36:42;;;;;;;5.65;4.65;;;;;;;21.03;76.58;96505.00;5038944;28;20230;-81
2022/07/16 00:39:11;;;;;;;7.68;4.75;;;;;;;21.01;77.21;96509.19;5027839;28;20230;-81
2022/07/16 00:41:41;;;;;;;6.13;4.60;;;;;;;21.03;76.47;96501.44;5034391;28;20241;-82
2022/07/16 00:44:10;;;;;;;6.82;4.85;;;;;;;21.07;76.42;96511.56;5041845;28;20210;-82
2022/07/16 00:46:39;;;;;;;5.03;4.53;;;;;;;21.03;77.10;96507.75;5040411;28;20211;-82
2022/07/16 00:49:07;;;;;;;7.97;5.45;;;;;;;20.94;77.13;96506.75;5036123;28;20209;-82
2022/07/16 00:51:35;;;;;;;6.63;5.60;;;;;;;20.76;78.09;96510.25;5042891;28;20218;-82
2022/07/16 00:54:04;;;;;;;5.97;4.60;;;;;;;20.53;79.89;96508.31;5037875;28;20219;-81
2022/07/16 00:56:31;;;;;;;7.88;5.28;;;;;;;20.43;80.43;96508.41;5047800;28;20230;-82
2022/07/16 00:58:59;;;;;;;9.23;5.47;;;;;;;20.42;80.90;96515.00;5047511;28;20241;-82
2022/07/16 01:01:27;;;;;;;5.78;5.10;;;;;;;20.38;80.23;96506.53;5044858;28;20202;-82
2022/07/16 01:03:54;;;;;;;9.63;5.55;;;;;;;20.32;81.02;96500.28;5069929;28;20206;-81
2022/07/16 01:06:22;;;;;;;7.40;4.88;;;;;;;20.41;80.54;96507.91;5038546;28;20199;-81
2022/07/16 01:08:50;;;;;;;5.32;4.82;;;;;;;20.35;80.25;96504.38;5047273;28;20225;-82
2022/07/16 01:11:19;;;;;;;8.05;5.10;;;;;;;20.21;80.92;96495.16;5043904;28;20212;-82
2022/07/16 01:13:48;;;;;;;5.65;4.80;;;;;;;20.01;82.11;96501.63;5039405;28;20234;-82
2022/07/16 01:16:17;;;;;;;6.78;5.40;;;;;;;19.90;83.63;96505.56;5045081;28;20241;-81
2022/07/16 01:18:46;;;;;;;7.23;5.60;;;;;;;19.83;84.00;96494.09;5046216;28;20297;-82
2022/07/16 01:21:13;;;;;;;7.38;5.50;;;;;;;19.84;85.18;96504.75;5038809;28;20300;-82
2022/07/16 01:23:45;;;;;;;6.65;5.32;;;;;;;19.87;85.17;96497.91;5037123;28;20224;-82
2022/07/16 01:26:12;;;;;;;7.60;5.30;;;;;;;19.86;85.12;96496.25;5030538;28;20436;-82
2022/07/16 01:28:40;;;;;;;7.72;5.47;;;;;;;19.83;85.16;96496.81;5044400;28;20246;-82
2022/07/16 01:31:07;;;;;;;6.95;5.05;;;;;;;19.84;85.22;96488.31;5072485;28;20210;-82
2022/07/16 01:33:37;;;;;;;7.05;5.25;;;;;;;19.83;85.40;96481.19;5041670;28;20206;-81
2022/07/16 01:36:07;;;;;;;6.40;5.50;;;;;;;19.91;84.48;96488.00;5049604;28;20257;-82
2022/07/16 01:38:35;;;;;;;7.63;5.25;;;;;;;19.80;85.43;96491.94;5044149;28;20230;-82
2022/07/16 01:41:03;;;;;;;6.57;5.80;;;;;;;19.70;85.78;96486.53;5045854;28;20210;-82
2022/07/16 01:43:31;;;;;;;7.25;5.50;;;;;;;19.81;85.77;96485.34;5073399;28;20206;-82
2022/07/16 01:45:59;;;;;;;6.25;5.65;;;;;;;19.79;84.92;96487.56;5049280;28;20214;-82
2022/07/16 01:48:27;;;;;;;7.60;5.43;;;;;;;19.82;84.55;96481.50;5045290;28;20205;-82
2022/07/16 01:50:55;;;;;;;6.70;5.50;;;;;;;19.68;84.85;96470.38;5044024;28;20190;-83
2022/07/16 01:53:23;;;;;;;6.57;5.88;;;;;;;19.77;84.42;96473.31;5048706;28;20220;-83
2022/07/16 01:55:51;;;;;;;6.22;5.60;;;;;;;19.74;84.09;96476.63;5076993;28;20250;-83
2022/07/16 01:58:19;;;;;;;7.33;5.30;;;;;;;19.64;84.67;96467.38;5047034;28;20215;-83
2022/07/16 02:00:47;;;;;;;7.72;5.60;;;;;;;19.70;85.32;96479.13;5037797;28;20199;-83
2022/07/16 02:03:15;;;;;;;6.57;5.45;;;;;;;19.66;85.92;96486.25;5042745;28;20195;-83
2022/07/16 02:05:42;;;;;;;6.80;5.82;;;;;;;19.58;87.41;96479.47;5079912;28;20206;-82
2022/07/16 02:08:10;;;;;;;5.93;5.38;;;;;;;19.65;86.15;96474.47;5045152;28;20215;-84
2022/07/16 02:10:38;;;;;;;8.07;5.30;;;;;;;19.57;85.84;96475.09;5036177;28;20226;-83
2022/07/16 02:13:06;;;;;;;6.93;5.75;;;;;;;19.63;87.27;96482.19;5048218;28;20268;-83
2022/07/16 02:15:35;;;;;;;7.72;5.40;;;;;;;19.44;88.02;96472.97;5080212;28;20293;-83
2022/07/16 02:18:02;;;;;;;5.75;5.15;;;;;;;19.47;87.70;96482.53;5048583;28;20321;-83
2022/07/16 02:20:29;;;;;;;6.38;5.18;;;;;;;19.51;88.05;96478.16;5048431;28;20199;-84
2022/07/16 02:22:57;;;;;;;6.00;5.45;;;;;;;19.61;87.92;96489.03;5046146;28;20210;-83
2022/07/16 02:25:25;;;;;;;6.80;5.40;;;;;;;19.59;87.72;96480.28;5046581;28;20291;-84
2022/07/16 02:28:08;;;;;;;7.97;5.70;;;;;;;19.70;86.92;96489.25;5048327;28;20237;-83
2022/07/16 02:30:38;;;;;;;5.75;5.25;;;;;;;19.74;87.37;96488.38;5052509;28;20205;-83
2022/07/16 02:33:05;;;;;;;7.05;5.50;;;;;;;19.57;87.84;96490.69;5041083;28;20210;-83
2022/07/16 02:35:33;;;;;;;7.10;6.05;;;;;;;19.53;88.55;96493.22;5045488;28;20214;-84
2022/07/16 02:38:00;;;;;;;6.55;5.00;;;;;;;19.51;88.13;96491.84;5043600;28;20257;-83
2022/07/16 02:40:28;;;;;;;7.30;5.38;;;;;;;19.53;88.48;96498.69;5032865;28;20237;-84
2022/07/16 02:42:56;;;;;;;6.80;5.30;;;;;;;19.53;89.21;96492.38;5041001;28;20225;-83
2022/07/16 02:45:23;;;;;;;6.78;4.97;;;;;;;19.53;88.42;96492.38;5048153;28;20201;-84
2022/07/16 02:47:52;;;;;;;5.93;5.30;;;;;;;19.58;88.04;96497.81;5063359;28;20215;-83
2022/07/16 02:50:20;;;;;;;7.50;5.63;;;;;;;19.64;88.84;96504.91;5044544;28;20293;-83
2022/07/16 02:52:47;;;;;;;6.22;5.25;;;;;;;19.65;88.69;96504.63;5052529;28;20209;-83
2022/07/16 02:55:15;;;;;;;5.68;5.18;;;;;;;19.64;88.30;96504.91;5079188;28;20233;-83
2022/07/16 02:57:43;;;;;;;6.90;5.22;;;;;;;19.57;88.01;96509.88;5043230;28;20225;-83
2022/07/16 03:00:13;;;;;;;7.30;5.32;;;;;;;19.48;89.35;96503.38;5050211;28;20219;-83
2022/07/16 03:02:41;;;;;;;5.97;5.15;;;;;;;19.44;89.72;96505.81;5045396;28;20198;-83
2022/07/16 03:05:10;;;;;;;6.63;5.53;;;;;;;19.38;89.51;96514.34;5046369;28;20203;-83
2022/07/16 03:07:39;;;;;;;7.50;5.53;;;;;;;19.37;90.43;96510.78;5044175;28;20278;-84
2022/07/16 03:10:08;;;;;;;6.50;5.53;;;;;;;19.34;90.69;96510.53;5049643;28;20297;-83
2022/07/16 03:12:35;;;;;;;7.68;5.40;;;;;;;19.27;91.43;96517.13;5043068;28;20210;-83
2022/07/16 03:15:02;;;;;;;6.72;5.70;;;;;;;19.19;92.19;96519.66;5039880;28;20207;-83
2022/07/16 03:17:31;;;;;;;6.72;5.80;;;;;;;19.17;91.70;96522.66;5047483;28;20225;-84
2022/07/16 03:19:58;;;;;;;9.35;6.07;;;;;;;19.22;91.81;96524.56;5046714;28;20253;-83
2022/07/16 03:22:26;;;;;;;6.10;5.50;;;;;;;19.28;91.74;96528.91;5046494;28;20205;-84
2022/07/16 03:24:53;;;;;;;6.15;5.60;;;;;;;19.41;90.39;96524.72;5074389;28;20305;-83
2022/07/16 03:27:20;;;;;;;5.60;5.10;;;;;;;19.23;91.27;96532.47;5046108;28;20207;-83
2022/07/16 03:29:48;;;;;;;6.38;5.78;;;;;;;19.19;91.16;96530.59;5044355;28;20230;-83
2022/07/16 03:32:15;;;;;;;6.22;5.60;;;;;;;19.14;91.07;96525.16;5044200;28;20242;-83
2022/07/16 03:34:42;;;;;;;6.70;5.90;;;;;;;19.13;91.33;96531.72;5044397;28;20303;-82
2022/07/16 03:37:09;;;;;;;6.95;5.47;;;;;;;19.05;92.07;96532.31;5045603;28;20232;-83
2022/07/16 03:39:38;;;;;;;6.45;5.80;;;;;;;18.99;93.50;96536.13;5039392;28;20199;-84
2022/07/16 03:42:05;;;;;;;5.93;5.32;;;;;;;18.98;93.47;96531.75;5080898;28;20206;-84
2022/07/16 03:44:32;;;;;;;7.05;6.35;;;;;;;18.79;93.49;96531.56;5041211;28;20266;-82
2022/07/16 03:46:59;;;;;;;8.85;6.85;;;;;;;18.65;95.03;96531.31;5030200;28;20211;-83
2022/07/16 03:49:26;;;;;;;6.40;5.60;;;;;;;18.69;94.97;96540.63;5045035;28;20213;-83
2022/07/16 03:51:53;;;;;;;7.50;6.30;;;;;;;18.70;94.83;96545.00;5044914;28;20209;-83
2022/07/16 03:54:21;;;;;;;8.87;6.03;;;;;;;18.59;95.46;96540.63;5060998;28;20325;-83
2022/07/16 03:56:49;;;;;;;8.07;6.03;;;;;;;18.56;95.37;96541.13;5047786;28;20230;-84
2022/07/16 03:59:16;;;;;;;11.57;6.53;;;;;;;18.45;97.00;96545.81;5039775;28;20207;-83
2022/07/16 04:01:43;;;;;;;7.10;6.40;;;;;;;18.54;96.76;96552.34;5042770;28;20218;-82
2022/07/16 04:04:10;;;;;;;7.30;6.33;;;;;;;18.65;95.59;96541.44;5045409;28;20198;-83
2022/07/16 04:06:37;;;;;;;8.80;6.40;;;;;;;18.71;94.92;96545.81;5047663;28;20198;-83
2022/07/16 04:09:04;;;;;;;7.57;5.53;;;;;;;18.71;94.99;96543.91;5046535;28;20205;-83
2022/07/16 04:11:31;;;;;;;7.33;6.33;;;;;;;18.69;93.84;96556.19;5035227;28;20302;-82
2022/07/16 04:14:00;;;;;;;9.73;6.70;;;;;;;18.22;96.95;96546.38;5044735;28;20255;-82
2022/07/16 04:16:27;;;;;;;8.53;6.47;;;;;;;18.10;98.58;96554.84;5040462;28;20225;-83
2022/07/16 04:18:54;;;;;;;7.57;6.57;;;;;;;18.13;99.51;96546.09;5043716;28;20230;-82
2022/07/16 04:21:21;;;;;;;6.90;6.20;;;;;;;18.24;99.08;96552.38;5047445;28;20241;-82
2022/07/16 04:23:48;;;;;;;8.43;6.67;;;;;;;18.21;98.81;96538.44;5038938;28;20221;-83
2022/07/16 04:26:15;;;;;;;6.93;6.27;;;;;;;18.12;99.01;96541.72;5035590;28;20212;-82
2022/07/16 04:28:42;;;;;;;7.97;7.00;;;;;;;18.13;99.92;96551.56;5064685;28;20238;-82
2022/07/16 04:31:11;;;;;;;9.50;6.20;;;;;;;18.13;98.85;96550.72;5037680;28;20299;-82
2022/07/16 04:33:38;;;;;;;6.90;6.13;;;;;;;18.20;99.38;96555.94;5080125;28;20205;-81
2022/07/16 04:36:06;;;;;;;8.80;6.43;;;;;;;18.21;99.66;96546.63;5042735;28;20201;-82
2022/07/16 04:38:33;;;;;;;9.10;6.27;;;;;;;18.29;98.56;96552.38;5045165;28;20221;-82
2022/07/16 04:41:00;;;;;;;7.97;6.30;;;;;;;18.31;98.34;96552.09;5039695;28;20208;-82
2022/07/16 04:43:28;;;;;;;9.87;6.30;;;;;;;18.36;97.40;96546.66;5033669;28;20210;-82
2022/07/16 04:45:55;;;;;;;7.00;5.90;;;;;;;18.44;96.99;96541.44;5046287;28;20194;-82
2022/07/16 04:48:24;;;;;;;7.30;5.93;;;;;;;18.47;96.47;96549.06;5046268;28;20249;-82
2022/07/16 04:50:51;;;;;;;8.13;6.50;;;;;;;18.39;96.89;96541.44;5046701;28;20202;-83
2022/07/16 04:53:18;;;;;;;7.47;6.60;;;;;;;18.35;97.91;96537.63;5039644;28;20307;-82
2022/07/16 04:55:45;;;;;;;8.43;5.77;;;;;;;18.32;98.20;96542.81;5047330;28;20228;-82
2022/07/16 04:58:12;;;;;;;6.43;5.83;;;;;;;18.31;98.19;96544.72;5053173;28;20333;-82
2022/07/16 05:00:39;;;;;;;8.53;6.50;;;;;;;18.34;98.38;96546.09;5042558;28;20222;-83
2022/07/16 05:03:07;;;;;;;7.23;6.40;;;;;;;18.33;97.58;96538.97;5068163;28;20280;-82
2022/07/16 05:05:37;;;;;;;10.40;6.63;;;;;;;18.42;97.99;96553.75;5040361;28;20203;-82
2022/07/16 05:08:07;;;;;;;7.10;6.40;;;;;;;18.45;97.79;96545.00;5050539;28;20206;-83
2022/07/16 05:10:34;;;;;;;8.13;6.30;;;;;;;18.40;98.27;96545.00;5049046;28;20202;-83
2022/07/16 05:13:02;;;;;;;7.57;6.50;;;;;;;18.29;98.11;96544.16;5048060;28;20270;-82
2022/07/16 05:15:30;;;;;;;6.80;6.10;;;;;;;18.25;99.60;96547.75;5083325;28;20242;-83
2022/07/16 05:17:58;;;;;;;7.33;6.47;;;;;;;18.22;100.00;96549.09;5046915;28;20230;-83
2022/07/16 05:20:25;;;;;;;7.63;5.90;;;;;;;18.29;99.97;96548.84;5047257;28;20229;-82
2022/07/16 05:22:53;;;;;;;9.23;6.70;;;;;;;18.23;100.00;96545.28;5048941;28;20198;-84
2022/07/16 05:25:21;;;;;;;8.83;6.30;;;;;;;18.29;100.00;96543.38;5045698;28;20202;-79
2022/07/16 05:27:48;;;;;;;6.87;6.17;;;;;;;18.35;100.00;96537.63;5046253;28;20198;-79
2022/07/16 05:30:15;;;;;;;6.87;6.17;;;;;;;18.44;99.75;96557.03;5045384;28;20228;-79
2022/07/16 05:32:44;;;;;;;7.20;6.13;;;;;;;18.41;100.00;96557.56;5045926;28;20266;-79
2022/07/16 05:35:12;;;;;;;6.83;6.03;;;;;;;18.41;100.00;96558.38;5044550;28;20210;-78
2022/07/16 05:37:39;;;;;;;9.50;5.97;;;;;;;18.54;100.00;96551.56;5043272;28;20214;-79
2022/07/16 05:40:11;;;;;;;7.73;6.07;;;;;;;18.65;99.78;96544.97;5074807;28;20238;-78
2022/07/16 05:42:38;;;;;;;6.47;5.77;;;;;;;18.69;100.00;96554.28;5049463;28;20673;-79
2022/07/16 05:45:06;;;;;;;8.57;6.27;;;;;;;18.69;100.00;96554.28;5043173;28;20205;-79
2022/07/16 05:47:34;;;;;;;7.27;6.53;;;;;;;18.76;100.00;96565.75;5042289;28;20214;-79
2022/07/16 05:50:01;;;;;;;7.50;6.07;;;;;;;18.81;99.58;96563.00;5045592;28;20288;-79
2022/07/16 05:52:28;;;;;;;7.00;5.97;;;;;;;18.77;99.27;96558.38;5042192;28;20259;-79
2022/07/16 05:54:56;;;;;;;6.60;5.97;;;;;;;18.85;99.54;96558.63;5047405;28;20198;-80
2022/07/16 05:57:24;;;;;;;6.97;6.10;;;;;;;18.83;100.00;96555.34;5046800;28;20226;-79
2022/07/16 05:59:51;;;;;;;8.40;6.70;;;;;;;18.88;98.69;96555.31;5042383;28;20216;-80
2022/07/16 06:02:19;;;;;;;9.13;6.60;;;;;;;18.91;98.92;96553.94;5043425;28;20199;-80
2022/07/16 06:04:46;;;;;;;9.57;7.30;;;;;;;18.70;99.81;96555.94;5040780;28;20203;-78
2022/07/16 06:07:13;;;;;;;7.30;6.60;;;;;;;18.73;100.00;96554.53;5039346;28;20229;-80
2022/07/16 06:09:40;;;;;;;8.07;6.40;;;;;;;18.77;100.00;96542.78;5044666;28;20226;-79
2022/07/16 06:12:07;;;;;;;7.20;6.50;;;;;;;18.87;100.00;96548.22;5048414;28;20217;-79
2022/07/16 06:14:36;;;;;;;6.95;6.25;;;;;;;18.92;100.00;96549.28;5038972;28;20214;-79
2022/07/16 06:17:03;;;;;;;7.93;6.10;;;;;;;18.74;100.00;96546.06;5041519;28;20214;-80
2022/07/16 06:19:30;;;;;;;8.17;6.50;;;;;;;18.77;100.00;96545.50;5047487;28;20246;-80
2022/07/16 06:21:57;;;;;;;8.33;6.50;;;;;;;18.78;100.00;96540.88;5048648;28;20211;-79
2022/07/16 06:24:24;;;;;;;7.97;6.60;;;;;;;18.67;100.00;96548.25;5047769;28;20202;-79
2022/07/16 06:26:52;;;;;;;8.27;6.47;;;;;;;18.58;100.00;96543.63;5045296;28;20211;-80
2022/07/16 06:29:19;;;;;;;7.13;6.43;;;;;;;18.58;100.00;96555.41;5040527;28;20226;-80
2022/07/16 06:31:47;;;;;;;6.67;6.07;;;;;;;18.64;100.00;96559.75;5081316;28;20209;-80
2022/07/16 06:34:14;;;;;;;8.00;6.70;;;;;;;18.78;100.00;96557.28;5045624;28;20207;-80
2022/07/16 06:36:42;;;;;;;6.87;6.20;;;;;;;18.95;100.00;96565.16;5048227;28;20202;-80
2022/07/16 06:39:09;;;;;;;6.72;6.03;;;;;;;19.01;100.00;96559.41;5048083;28;20660;-81
2022/07/16 06:41:38;;;;;;;7.97;6.35;;;;;;;19.03;100.00;96559.13;5046488;28;20332;-80
2022/07/16 06:44:06;;;;;;;8.10;7.30;;;;;;;19.00;100.00;96556.94;5040735;28;20226;-79
2022/07/16 06:46:33;;;;;;;6.85;5.97;;;;;;;19.06;100.00;96569.50;5041896;28;20275;-79
2022/07/16 06:49:02;;;;;;;10.10;7.07;;;;;;;18.76;100.00;96563.03;5048733;28;20198;-80
2022/07/16 06:51:30;;;;;;;9.70;7.20;;;;;;;18.64;100.00;96553.47;5037656;28;20292;-80
2022/07/16 06:53:57;;;;;;;8.60;7.00;;;;;;;18.76;100.00;96563.03;5046815;28;20218;-80
2022/07/16 06:56:25;;;;;;;9.10;6.83;;;;;;;18.88;100.00;96569.00;5047315;28;20224;-81
2022/07/16 06:58:52;;;;;;;7.60;6.67;;;;;;;19.02;100.00;96563.78;5038392;28;20230;-80
2022/07/16 07:01:19;;;;;;;8.07;6.15;;;;;;;18.98;100.00;96568.16;5078916;28;20217;-78
2022/07/16 07:03:46;;;;;;;6.80;6.20;;;;;;;18.87;100.00;96570.13;5036756;28;20210;-78
2022/07/16 07:06:15;;;;;;;7.83;6.07;;;;;;;19.01;100.00;96573.06;5071481;28;20206;-78
2022/07/16 07:08:43;;;;;;;9.10;7.00;;;;;;;19.12;100.00;96569.22;5045708;28;20202;-78
2022/07/16 07:11:11;;;;;;;10.20;6.70;;;;;;;19.02;100.00;96562.94;5043234;28;20198;-78
2022/07/16 07:13:38;;;;;;;6.60;6.00;;;;;;;18.97;100.00;96571.19;5036816;28;20256;-78
2022/07/16 07:16:06;;;;;;;8.52;6.32;;;;;;;18.92;100.00;96579.41;5049745;28;20264;-78
2022/07/16 07:18:34;;;;;;;7.25;6.55;;;;;;;19.01;100.00;96573.06;5043558;28;20226;-78
2022/07/16 07:21:01;;;;;;;8.60;6.13;;;;;;;19.28;100.00;96569.97;5049219;28;20277;-83
2022/07/16 07:23:30;;;;;;;7.93;5.82;;;;;;;19.79;100.00;96569.75;5046273;28;20278;-83
2022/07/16 07:25:57;;;;;;;6.70;5.72;;;;;;;20.25;96.79;96579.28;5046797;28;20313;-84
2022/07/16 07:28:24;;;;;;;7.18;6.25;;;;;;;20.67;93.51;96581.41;5042484;28;20234;-81
2022/07/16 07:30:51;;;;;;;6.75;6.00;;;;;;;21.02;90.71;96579.41;5045049;28;20199;-84
2022/07/16 07:33:18;;;;;;;6.43;5.68;;;;;;;21.43;87.47;96577.06;5038009;28;20211;-83
2022/07/16 07:35:46;;;;;;;9.10;5.85;;;;;;;21.75;85.21;96576.38;5038619;28;20293;-83
2022/07/16 07:38:13;;;;;;;7.40;6.07;;;;;;;22.09;86.05;96573.44;5046932;28;20217;-85
2022/07/16 07:40:42;;;;;;;7.18;5.90;;;;;;;22.31;81.76;96573.63;5047116;28;20221;-83
2022/07/16 07:43:09;;;;;;;6.40;5.80;;;;;;;22.25;81.18;96561.91;5045786;28;20202;-82
2022/07/16 07:45:36;;;;;;;10.45;6.07;;;;;;;22.52;78.24;96572.19;5048487;28;20209;-84
2022/07/16 07:48:03;;;;;;;7.43;6.25;;;;;;;22.81;73.72;96568.41;5049039;28;20202;-84
2022/07/16 07:50:30;;;;;;;9.20;6.35;;;;;;;22.95;72.86;96566.53;5048955;28;20268;-83
2022/07/16 07:52:57;;;;;;;8.95;6.13;;;;;;;23.09;73.64;96558.25;5048065;28;20297;-83
2022/07/16 07:55:25;;;;;;;8.30;5.80;;;;;;;23.33;73.80;96561.63;5043921;28;20209;-82
2022/07/16 07:57:53;;;;;;;8.70;6.35;;;;;;;23.57;69.97;96558.69;5049215;28;20201;-83
2022/07/16 08:00:21;;;;;;;6.20;5.60;;;;;;;23.70;69.72;96549.59;5047741;28;20218;-82
2022/07/16 08:02:48;;;;;;;9.60;6.68;;;;;;;23.50;70.96;96547.25;5050340;28;20262;-83
2022/07/16 08:05:15;;;;;;;8.10;6.00;;;;;;;23.84;69.49;96544.03;5046399;28;20238;-82
2022/07/16 08:07:43;;;;;;;9.43;5.68;;;;;;;23.93;69.25;96554.03;5044909;28;20206;-83
2022/07/16 08:10:10;;;;;;;10.90;5.70;;;;;;;24.03;67.06;96548.28;5049387;28;20206;-83
2022/07/16 08:12:38;;;;;;;8.90;5.93;;;;;;;24.19;65.93;96542.41;5078654;28;20201;-82
2022/07/16 08:15:09;;;;;;;11.20;5.88;;;;;;;24.34;65.56;96553.91;5047581;28;20203;-84
2022/07/16 08:17:36;;;;;;;8.32;5.90;;;;;;;24.59;65.46;96554.41;5081917;28;20202;-84
2022/07/16 08:20:03;;;;;;;7.82;5.53;;;;;;;24.76;64.46;96555.31;5047477;28;20421;-83
2022/07/16 08:22:31;;;;;;;7.20;5.38;;;;;;;24.74;64.16;96552.09;5071087;28;20210;-82
2022/07/16 08:27:42;;;;;;;7.78;5.78;;;;;;;24.64;63.79;96557.03;5045665;28;20314;-81
2022/07/16 08:30:11;;;;;;;7.38;5.50;;;;;;;24.54;63.85;96552.59;5006166;28;20203;-82
2022/07/16 08:32:38;;;;;;;6.70;5.55;;;;;;;24.64;63.24;96546.81;5008527;28;20251;-83
2022/07/16 08:35:06;;;;;;;10.75;5.55;;;;;;;24.73;62.46;96550.44;5008969;28;20226;-83
2022/07/16 08:37:35;;;;;;;5.47;4.82;;;;;;;24.86;62.50;96546.78;5006834;28;20212;-83
2022/07/16 08:40:05;;;;;;;6.80;5.25;;;;;;;24.80;61.13;96539.75;5005499;28;20259;-83
2022/07/16 08:42:34;;;;;;;9.13;5.43;;;;;;;24.89;62.50;96542.56;5008122;28;20215;-83
2022/07/16 08:45:02;;;;;;;5.95;4.95;;;;;;;24.99;60.66;96547.03;5005381;28;20212;-83
2022/07/16 08:47:33;;;;;;;6.32;5.10;;;;;;;25.00;60.25;96545.91;4996572;28;20295;-83
2022/07/16 08:50:01;;;;;;;6.63;5.15;;;;;;;25.03;60.30;96542.50;4992078;28;20211;-82
2022/07/16 08:52:30;;;;;;;5.80;5.20;;;;;;;25.14;60.59;96552.16;5006874;28;20217;-83
2022/07/16 08:54:58;;;;;;;6.25;5.38;;;;;;;25.32;59.36;96544.75;5005915;28;20293;-83
2022/07/16 08:57:26;;;;;;;7.07;5.60;;;;;;;25.31;58.63;96543.09;5007906;28;20231;-82
2022/07/16 08:59:54;;;;;;;6.50;5.05;;;;;;;25.27;60.85;96553.97;5007996;28;20223;-83
2022/07/16 09:02:21;;;;;;;6.50;5.15;;;;;;;25.23;59.55;96548.28;5006739;28;20203;-82
2022/07/16 09:04:50;;;;;;;5.80;5.10;;;;;;;25.27;59.73;96548.44;4992574;28;20196;-82
2022/07/16 09:07:19;;;;;;;7.47;5.40;;;;;;;25.42;59.01;96553.56;5003641;28;20311;-83
2022/07/16 09:09:47;;;;;;;7.43;5.53;;;;;;;25.46;58.34;96551.78;5004345;28;20215;-83
2022/07/16 09:12:36;;;;;;;6.30;4.95;;;;;;;25.49;59.12;96555.84;5008201;28;20291;-83
2022/07/16 09:15:24;;;;;;;5.90;5.30;;;;;;;25.53;57.43;96551.28;5007622;28;20218;-83
2022/07/16 09:18:13;;;;;;;5.90;4.75;;;;;;;25.59;57.12;96553.66;5004887;28;20215;-83
2022/07/16 09:20:44;;;;;;;8.18;5.43;;;;;;;25.50;58.10;96544.47;5007546;28;20216;-83
2022/07/16 09:23:29;;;;;;;6.07;5.47;;;;;;;25.68;57.94;96555.63;5007298;28;20298;-83
2022/07/16 09:25:58;;;;;;;5.40;4.90;;;;;;;25.75;57.50;96555.94;5005379;28;20214;-83
2022/07/16 09:28:38;;;;;;;6.00;5.35;;;;;;;25.85;58.55;96550.13;5013399;28;20242;-82
2022/07/16 09:31:05;;;;;;;7.22;5.38;;;;;;;25.90;57.64;96545.22;5044735;28;20232;-83
2022/07/16 09:33:32;;;;;;;7.90;5.30;;;;;;;26.12;56.99;96549.78;5035844;28;20203;-83
2022/07/16 09:36:09;;;;;;;5.68;4.93;;;;;;;26.18;58.14;96547.69;5046265;28;20210;-83
2022/07/16 09:38:49;;;;;;;7.55;5.03;;;;;;;26.25;56.41;96543.31;5047595;28;20218;-83
2022/07/16 09:41:16;;;;;;;6.43;4.90;;;;;;;26.14;56.05;96549.47;5047878;28;20255;-83
2022/07/16 09:43:44;;;;;;;5.80;5.20;;;;;;;26.33;55.96;96544.47;5049262;28;20267;-83
2022/07/16 09:46:17;;;;;;;7.70;5.13;;;;;;;26.49;57.05;96550.31;5036406;28;20207;-83
2022/07/16 09:48:45;;;;;;;5.20;4.70;;;;;;;26.55;55.53;96533.19;5029203;28;20298;-83
2022/07/16 09:51:25;;;;;;;5.57;5.07;;;;;;;26.68;54.41;96536.94;5038289;28;20198;-83
2022/07/16 09:53:54;;;;;;;5.95;5.45;;;;;;;26.63;54.41;96543.44;5049244;28;20205;-84
2022/07/16 09:56:23;;;;;;;6.50;5.15;;;;;;;26.69;54.89;96546.88;5048099;28;20309;-82
2022/07/16 09:58:53;;;;;;;6.88;4.80;;;;;;;26.70;54.76;96545.75;5051459;28;20234;-83
2022/07/16 10:01:21;;;;;;;6.65;5.18;;;;;;;26.69;55.17;96539.38;5051371;28;20202;-83
2022/07/16 10:03:50;;;;;;;6.13;5.53;;;;;;;26.76;54.37;96541.63;5048575;28;20211;-83
2022/07/16 10:06:18;;;;;;;8.80;5.65;;;;;;;26.70;53.84;96529.13;5050127;28;20301;-83
2022/07/16 10:08:47;;;;;;;6.05;5.25;;;;;;;26.59;54.10;96538.91;5050758;28;20206;-83
2022/07/16 10:11:14;;;;;;;7.50;5.00;;;;;;;26.67;54.34;96535.31;5083815;28;20222;-82
2022/07/16 10:13:44;;;;;;;7.18;4.68;;;;;;;26.56;54.41;96537.59;5047932;28;20205;-83
2022/07/16 10:16:12;;;;;;;6.88;5.43;;;;;;;26.71;53.59;96528.75;5077939;28;20225;-83
2022/07/16 10:18:42;;;;;;;8.23;5.20;;;;;;;26.72;53.75;96532.34;5050672;28;20213;-83
2022/07/16 10:21:13;;;;;;;5.90;5.30;;;;;;;26.66;54.08;96539.22;5043346;28;20300;-82
2022/07/16 10:23:42;;;;;;;6.45;5.13;;;;;;;26.56;53.50;96520.16;5050164;28;20223;-82
2022/07/16 10:26:15;;;;;;;6.55;4.95;;;;;;;26.71;52.11;96527.97;5046475;28;20306;-82
2022/07/16 10:28:46;;;;;;;6.97;5.20;;;;;;;26.73;53.22;96523.72;5051075;28;20234;-83
2022/07/16 10:31:40;;;;;;;7.70;5.20;;;;;;;26.94;52.54;96534.94;5039126;28;20242;-83
2022/07/16 10:34:38;;;;;;;6.18;5.43;;;;;;;27.05;52.49;96535.41;5048234;28;20206;-83
2022/07/16 10:37:08;;;;;;;5.50;5.00;;;;;;;27.01;51.84;96526.94;5047321;28;20210;-82
2022/07/16 10:39:50;;;;;;;8.73;5.47;;;;;;;27.06;51.87;96526.75;5049479;28;20244;-83
2022/07/16 10:42:19;;;;;;;5.50;5.00;;;;;;;27.38;51.30;96530.03;5048001;28;20203;-82
2022/07/16 10:44:48;;;;;;;7.22;4.90;;;;;;;27.53;51.72;96532.25;5049023;28;20194;-82
2022/07/16 10:47:16;;;;;;;6.50;5.00;;;;;;;27.36;50.52;96527.59;5046001;28;20260;-82
2022/07/16 10:49:43;;;;;;;5.85;4.45;;;;;;;27.30;50.61;96515.09;5048492;28;20195;-83
2022/07/16 10:52:14;;;;;;;6.13;4.70;;;;;;;27.36;51.42;96515.69;5050246;28;20225;-82
2022/07/16 10:54:42;;;;;;;5.50;4.70;;;;;;;27.41;50.32;96518.25;5050180;28;20194;-83
2022/07/16 10:57:10;;;;;;;4.68;4.28;;;;;;;27.61;51.50;96513.97;5083629;28;20225;-83
2022/07/16 10:59:40;;;;;;;5.20;4.75;;;;;;;27.58;49.80;96512.66;5049080;28;20316;-83
2022/07/16 11:02:10;;;;;;;6.47;4.85;;;;;;;27.48;49.95;96515.78;5042736;28;20297;-82
2022/07/16 11:04:38;;;;;;;5.75;4.63;;;;;;;27.52;50.36;96516.75;5046031;28;20197;-83
2022/07/16 11:07:10;;;;;;;9.85;4.82;;;;;;;27.73;50.11;96512.06;5049799;28;20216;-83
2022/07/16 11:09:39;;;;;;;6.10;4.80;;;;;;;27.87;49.13;96517.38;5040544;28;20312;-83
2022/07/16 11:12:13;;;;;;;8.48;5.07;;;;;;;27.87;49.29;96517.38;5046268;28;20206;-83
2022/07/16 11:14:44;;;;;;;5.47;4.88;;;;;;;27.87;48.42;96517.38;5061594;28;20218;-83
2022/07/16 11:17:12;;;;;;;5.47;4.50;;;;;;;27.81;49.28;96515.97;5048380;28;20206;-82
2022/07/16 11:19:40;;;;;;;5.43;4.60;;;;;;;27.96;49.14;96508.97;5047417;28;20265;-83
2022/07/16 11:22:08;;;;;;;4.95;4.32;;;;;;;28.17;48.79;96505.06;5038730;28;20215;-82
2022/07/16 11:24:37;;;;;;;6.78;4.80;;;;;;;28.24;48.83;96496.22;5044305;28;20198;-83
2022/07/16 11:27:06;;;;;;;8.35;5.13;;;;;;;28.37;47.86;96508.19;5048010;28;20209;-83
2022/07/16 11:29:33;;;;;;;6.80;5.00;;;;;;;28.22;47.09;96515.19;5046560;28;20230;-83
2022/07/16 11:32:02;;;;;;;6.55;4.60;;;;;;;28.03;47.44;96503.69;5050436;28;20204;-83
2022/07/16 11:34:33;;;;;;;6.85;5.00;;;;;;;28.09;47.87;96503.16;5048599;28;20296;-83
2022/07/16 11:37:01;;;;;;;7.68;4.97;;;;;;;27.98;48.79;96504.72;5044554;28;20226;-83
2022/07/16 11:39:29;;;;;;;5.93;4.80;;;;;;;28.00;47.80;96493.25;5070225;28;20246;-83
2022/07/16 11:41:58;;;;;;;5.68;4.97;;;;;;;27.71;48.45;96496.94;5046801;28;20217;-83